createdAt,value
2023-05-16T00:00:38.053Z,13.48
2023-05-16T00:03:05.435Z,13.48
2023-05-16T00:05:33.103Z,14.05
2023-05-16T00:07:59.958Z,13.98
2023-05-16T00:10:27.077Z,13.20
2023-05-16T00:12:54.076Z,12.98
2023-05-16T00:15:20.827Z,13.55
2023-05-16T00:17:47.891Z,13.57
2023-05-16T00:20:17.218Z,14.60
2023-05-16T00:22:44.324Z,13.82
2023-05-16T00:25:11.259Z,13.38
2023-05-16T00:27:37.998Z,14.75
2023-05-16T00:30:05.344Z,13.32
2023-05-16T00:32:32.655Z,13.68
2023-05-16T00:35:00.895Z,13.88
2023-05-16T00:37:27.824Z,13.40
2023-05-16T00:39:54.734Z,13.77
2023-05-16T00:42:21.657Z,13.95
2023-05-16T00:44:48.904Z,13.60
2023-05-16T00:47:15.876Z,13.55
2023-05-16T00:49:42.858Z,13.23
2023-05-16T00:52:09.882Z,13.10
2023-05-16T00:54:36.913Z,13.88
2023-05-16T00:57:04.986Z,14.20
2023-05-16T00:59:31.729Z,14.40
2023-05-16T01:01:58.747Z,14.43
2023-05-16T01:04:25.843Z,14.48
2023-05-16T01:06:56.194Z,15.00
2023-05-16T01:09:23.333Z,15.88
2023-05-16T01:12:15.033Z,15.77
2023-05-16T01:15:04.928Z,14.73
2023-05-16T01:18:01.051Z,15.35
2023-05-16T01:21:13.477Z,17.10
2023-05-16T01:24:11.148Z,16.08
2023-05-16T01:26:37.994Z,15.40
2023-05-16T01:29:07.593Z,14.90
2023-05-16T01:31:35.570Z,15.38
2023-05-16T01:34:02.418Z,14.75
2023-05-16T01:36:37.189Z,14.20
2023-05-16T01:39:33.889Z,14.02
2023-05-16T01:42:06.629Z,14.10
2023-05-16T01:44:47.011Z,14.98
2023-05-16T01:47:16.585Z,15.93
2023-05-16T01:49:51.511Z,16.98
2023-05-16T01:52:28.333Z,15.95
2023-05-16T01:54:56.828Z,15.18
2023-05-16T01:57:26.475Z,16.38
2023-05-16T01:59:53.582Z,18.42
2023-05-16T02:02:20.963Z,16.38
2023-05-16T02:04:47.790Z,17.25
2023-05-16T02:07:15.879Z,17.75
2023-05-16T02:09:45.140Z,18.13
2023-05-16T02:12:11.875Z,21.33
2023-05-16T02:14:38.618Z,20.15
2023-05-16T02:17:06.596Z,17.70
2023-05-16T02:19:33.442Z,16.05
2023-05-16T02:22:00.828Z,16.75
2023-05-16T02:24:27.539Z,16.42
2023-05-16T02:26:55.743Z,17.48
2023-05-16T02:29:22.691Z,18.13
2023-05-16T02:31:49.563Z,19.23
2023-05-16T02:34:16.751Z,19.25
2023-05-16T02:36:43.640Z,17.55
2023-05-16T02:39:11.289Z,19.52
2023-05-16T02:41:38.077Z,18.23
2023-05-16T02:44:04.986Z,16.83
2023-05-16T02:46:34.498Z,16.60
2023-05-16T02:49:01.879Z,16.33
2023-05-16T02:51:29.054Z,15.85
2023-05-16T02:53:59.975Z,15.98
2023-05-16T02:56:27.591Z,22.20
2023-05-16T02:58:55.013Z,15.98
2023-05-16T03:01:22.104Z,17.30
2023-05-16T03:03:49.119Z,17.13
2023-05-16T03:06:16.219Z,17.33
2023-05-16T03:08:42.954Z,18.92
2023-05-16T03:11:09.729Z,17.85
2023-05-16T03:13:36.580Z,17.88
2023-05-16T03:16:03.922Z,22.23
2023-05-16T03:18:30.976Z,20.40
2023-05-16T03:20:58.140Z,20.65
2023-05-16T03:23:24.865Z,19.75
2023-05-16T03:25:51.549Z,19.08
2023-05-16T03:28:20.987Z,23.73
2023-05-16T03:30:47.729Z,23.17
2023-05-16T03:33:14.429Z,21.63
2023-05-16T03:35:41.389Z,22.67
2023-05-16T03:38:08.214Z,20.23
2023-05-16T03:40:35.348Z,23.00
2023-05-16T03:43:02.019Z,21.88
2023-05-16T03:45:30.165Z,22.02
2023-05-16T03:47:57.444Z,24.23
2023-05-16T03:50:24.179Z,20.85
2023-05-16T03:52:51.826Z,19.67
2023-05-16T03:55:18.505Z,21.52
2023-05-16T03:57:46.385Z,21.42
2023-05-16T04:00:13.662Z,19.98
2023-05-16T04:02:41.056Z,21.58
2023-05-16T04:05:09.424Z,21.83
2023-05-16T04:07:39.180Z,20.67
2023-05-16T04:10:06.554Z,20.77
2023-05-16T04:12:33.230Z,20.58
2023-05-16T04:14:59.913Z,18.83
2023-05-16T04:17:26.657Z,20.08
2023-05-16T04:19:53.368Z,18.27
2023-05-16T04:22:22.848Z,19.15
2023-05-16T04:24:49.596Z,19.42
2023-05-16T04:27:16.271Z,19.98
2023-05-16T04:29:43.100Z,21.30
2023-05-16T04:32:11.004Z,20.58
2023-05-16T04:34:39.758Z,23.63
2023-05-16T04:37:07.493Z,26.77
2023-05-16T04:39:35.710Z,27.13
2023-05-16T04:42:03.675Z,30.77
2023-05-16T04:44:30.596Z,32.70
2023-05-16T04:46:57.691Z,32.00
2023-05-16T04:49:24.590Z,31.88
2023-05-16T04:51:51.326Z,32.05
2023-05-16T04:54:18.132Z,30.90
2023-05-16T04:56:44.849Z,33.63
2023-05-16T04:59:11.599Z,29.17
2023-05-16T05:01:38.299Z,34.25
2023-05-16T05:04:05.070Z,33.05
2023-05-16T05:06:32.034Z,32.67
2023-05-16T05:08:58.698Z,29.85
2023-05-16T05:11:27.122Z,31.33
2023-05-16T05:13:53.831Z,31.73
2023-05-16T05:16:22.905Z,31.75
2023-05-16T05:18:49.777Z,30.55
2023-05-16T05:21:16.558Z,31.45
2023-05-16T05:23:43.267Z,30.83
2023-05-16T05:26:10.056Z,30.38
2023-05-16T05:28:37.892Z,29.13
2023-05-16T05:31:08.102Z,31.17
2023-05-16T05:33:34.917Z,30.15
2023-05-16T05:36:03.872Z,30.58
2023-05-16T05:38:30.856Z,30.00
2023-05-16T05:40:57.684Z,29.00
2023-05-16T05:43:24.401Z,30.73
2023-05-16T05:45:51.180Z,30.85
2023-05-16T05:48:17.911Z,31.80
2023-05-16T05:50:44.589Z,30.33
2023-05-16T05:53:11.317Z,29.38
2023-05-16T05:55:38.040Z,27.58
2023-05-16T05:58:07.062Z,30.63
2023-05-16T06:00:34.018Z,32.80
2023-05-16T06:03:00.808Z,30.85
2023-05-16T06:05:27.710Z,28.88
2023-05-16T06:07:54.618Z,28.08
2023-05-16T06:10:21.455Z,29.73
2023-05-16T06:12:48.106Z,30.48
2023-05-16T06:15:14.776Z,32.15
2023-05-16T06:17:42.040Z,30.10
2023-05-16T06:20:09.054Z,30.90
2023-05-16T06:22:36.002Z,32.20
2023-05-16T06:25:02.763Z,32.75
2023-05-16T06:27:29.473Z,32.05
2023-05-16T06:29:56.189Z,32.33
2023-05-16T06:32:22.895Z,32.78
2023-05-16T06:34:49.597Z,32.10
2023-05-16T06:37:16.317Z,34.63
2023-05-16T06:39:43.005Z,35.33
2023-05-16T06:42:11.085Z,35.15
2023-05-16T06:44:37.921Z,34.03
2023-05-16T06:47:05.029Z,32.38
2023-05-16T06:49:31.760Z,32.47
2023-05-16T06:51:58.531Z,34.72
2023-05-16T06:54:25.314Z,32.55
2023-05-16T06:56:52.004Z,32.13
2023-05-16T06:59:18.710Z,32.45
2023-05-16T07:01:45.585Z,32.65
2023-05-16T07:04:12.492Z,30.83
2023-05-16T07:06:39.327Z,35.10
2023-05-16T07:09:06.049Z,33.40
2023-05-16T07:11:32.743Z,33.22
2023-05-16T07:13:59.415Z,33.35
2023-05-16T07:16:28.561Z,34.35
2023-05-16T07:18:55.522Z,35.78
2023-05-16T07:21:22.260Z,35.72
2023-05-16T07:23:49.166Z,37.08
2023-05-16T07:26:18.838Z,35.33
2023-05-16T07:28:45.565Z,35.08
2023-05-16T07:31:12.337Z,38.13
2023-05-16T07:33:39.041Z,36.70
2023-05-16T07:36:15.928Z,38.97
2023-05-16T07:38:43.896Z,39.00
2023-05-16T07:41:10.787Z,35.80
2023-05-16T07:43:37.733Z,37.55
2023-05-16T07:46:05.245Z,36.80
2023-05-16T07:48:32.279Z,36.15
2023-05-16T07:50:59.328Z,37.75
2023-05-16T07:53:26.042Z,37.30
2023-05-16T07:55:52.943Z,37.10
2023-05-16T07:58:19.872Z,34.67
2023-05-16T08:00:46.751Z,33.65
2023-05-16T08:03:13.752Z,33.38
2023-05-16T08:05:40.656Z,35.72
2023-05-16T08:08:07.514Z,35.03
2023-05-16T08:10:34.254Z,32.33
2023-05-16T08:13:01.186Z,33.72
2023-05-16T08:15:28.453Z,33.47
2023-05-16T08:17:58.667Z,33.30
2023-05-16T08:20:26.176Z,29.40
2023-05-16T08:22:53.162Z,29.75
2023-05-16T08:25:20.593Z,29.75
2023-05-16T08:27:49.693Z,30.23
2023-05-16T08:30:16.648Z,29.67
2023-05-16T08:32:43.743Z,28.35
2023-05-16T08:35:11.306Z,28.48
2023-05-16T08:37:38.083Z,30.67
2023-05-16T08:40:08.332Z,29.85
2023-05-16T08:42:35.620Z,24.83
2023-05-16T08:45:03.032Z,26.52
2023-05-16T08:47:31.713Z,26.42
2023-05-16T08:49:59.195Z,28.73
2023-05-16T08:52:31.252Z,27.83
2023-05-16T08:55:09.978Z,26.40
2023-05-16T08:57:38.452Z,25.35
2023-05-16T09:00:12.066Z,23.17
2023-05-16T09:02:44.630Z,24.50
2023-05-16T09:05:13.901Z,25.37
2023-05-16T09:07:41.645Z,24.60
2023-05-16T09:10:08.718Z,21.75
2023-05-16T09:12:35.887Z,23.17
2023-05-16T09:15:04.656Z,22.45
2023-05-16T09:17:39.933Z,20.65
2023-05-16T09:20:21.650Z,17.92
2023-05-16T09:22:56.033Z,21.92
2023-05-16T09:27:58.013Z,16.75
2023-05-16T09:30:33.545Z,15.55
2023-05-16T09:33:00.489Z,14.82
2023-05-16T09:35:43.255Z,15.38
2023-05-16T09:38:18.197Z,12.35
2023-05-16T09:43:16.519Z,13.82
2023-05-16T09:45:48.194Z,12.10
2023-05-16T09:48:15.931Z,11.65
2023-05-16T09:50:49.267Z,12.10
2023-05-16T09:53:16.048Z,11.48
2023-05-16T09:55:42.788Z,9.95
2023-05-16T09:58:09.492Z,10.48
2023-05-16T10:00:38.040Z,9.00
2023-05-16T10:03:06.049Z,7.35
2023-05-16T10:05:33.734Z,7.95
2023-05-16T10:08:02.748Z,8.00
2023-05-16T10:10:29.904Z,9.07
2023-05-16T10:12:59.236Z,7.15
2023-05-16T10:15:26.669Z,7.97
2023-05-16T10:17:57.238Z,7.55
2023-05-16T10:20:24.218Z,7.55
2023-05-16T10:22:53.228Z,7.90
2023-05-16T10:25:29.873Z,7.53
2023-05-16T10:27:57.003Z,6.95
2023-05-16T10:30:23.825Z,6.78
2023-05-16T10:32:51.929Z,6.78
2023-05-16T10:35:19.941Z,6.57
2023-05-16T10:37:46.978Z,6.93
2023-05-16T10:40:14.169Z,6.15
2023-05-16T10:43:03.913Z,6.32
2023-05-16T10:45:31.277Z,6.30
2023-05-16T10:48:10.024Z,6.32
2023-05-16T10:50:43.867Z,6.30
2023-05-16T10:53:18.788Z,5.88
2023-05-16T10:55:51.483Z,5.07
2023-05-16T10:58:25.528Z,5.57
2023-05-16T11:01:15.685Z,5.22
2023-05-16T11:04:01.129Z,6.05
2023-05-16T11:06:33.295Z,6.53
2023-05-16T11:09:10.647Z,5.28
2023-05-16T11:11:46.457Z,4.65
2023-05-16T11:14:32.535Z,6.85
2023-05-16T11:17:01.078Z,3.95
2023-05-16T11:19:42.807Z,3.72
2023-05-16T11:22:29.403Z,4.72
2023-05-16T11:24:59.690Z,4.43
2023-05-16T11:27:31.498Z,4.28
2023-05-16T11:30:07.376Z,3.85
2023-05-16T11:32:35.298Z,4.22
2023-05-16T11:35:02.385Z,3.80
2023-05-16T11:37:29.878Z,3.65
2023-05-16T11:40:01.395Z,4.22
2023-05-16T11:42:36.701Z,4.40
2023-05-16T11:45:21.432Z,3.95
2023-05-16T11:47:48.935Z,3.55
2023-05-16T11:50:17.425Z,3.83
2023-05-16T11:52:46.597Z,3.50
2023-05-16T11:55:17.444Z,3.25
2023-05-16T11:57:52.175Z,3.88
2023-05-16T12:00:21.075Z,3.85
2023-05-16T12:02:51.156Z,3.65
2023-05-16T12:05:19.034Z,3.15
2023-05-16T12:07:46.864Z,3.83
2023-05-16T12:10:15.178Z,3.88
2023-05-16T12:12:44.909Z,4.55
2023-05-16T12:15:12.292Z,3.60
2023-05-16T12:17:40.471Z,4.03
2023-05-16T12:20:14.203Z,3.75
2023-05-16T12:22:41.567Z,3.47
2023-05-16T12:25:26.675Z,3.00
2023-05-16T12:28:01.558Z,3.00
2023-05-16T12:30:30.074Z,3.65
2023-05-16T12:33:08.517Z,3.10
2023-05-16T12:35:37.302Z,3.47
2023-05-16T12:38:05.626Z,2.95
2023-05-16T12:40:32.473Z,3.13
2023-05-16T12:42:59.261Z,3.80
2023-05-16T12:45:29.016Z,3.75
2023-05-16T12:47:55.920Z,2.60
2023-05-16T12:50:22.991Z,3.05
2023-05-16T12:52:54.042Z,3.20
2023-05-16T12:55:22.283Z,2.90
2023-05-16T12:57:50.167Z,2.63
2023-05-16T13:00:19.827Z,3.25
2023-05-16T13:02:48.699Z,2.67
2023-05-16T13:05:15.925Z,2.42
2023-05-16T13:07:42.724Z,2.05
2023-05-16T13:10:15.795Z,1.77
2023-05-16T13:12:42.594Z,2.05
2023-05-16T13:15:11.644Z,1.95
2023-05-16T13:17:39.565Z,2.35
2023-05-16T13:20:09.813Z,2.03
2023-05-16T13:22:37.132Z,3.08
2023-05-16T13:25:04.657Z,2.40
2023-05-16T13:27:32.286Z,1.95
2023-05-16T13:29:59.350Z,2.03
2023-05-16T13:32:26.595Z,1.80
2023-05-16T13:34:53.490Z,1.92
2023-05-16T13:37:20.469Z,2.20
2023-05-16T13:39:47.257Z,2.33
2023-05-16T13:42:16.462Z,2.20
2023-05-16T13:44:44.755Z,3.40
2023-05-16T13:47:11.739Z,2.22
2023-05-16T13:49:38.910Z,2.80
2023-05-16T13:52:06.356Z,2.28
2023-05-16T13:54:33.584Z,2.50
2023-05-16T13:57:01.573Z,2.55
2023-05-16T13:59:55.290Z,2.80
2023-05-16T14:02:15.203Z,3.95
2023-05-16T14:04:41.922Z,3.80
2023-05-16T14:07:08.739Z,2.80
2023-05-16T14:09:39.043Z,3.58
2023-05-16T14:12:07.268Z,3.20
2023-05-16T14:14:37.389Z,3.03
2023-05-16T14:17:04.257Z,3.22
2023-05-16T14:19:31.410Z,3.25
2023-05-16T14:21:58.455Z,3.17
2023-05-16T14:24:25.317Z,3.33
2023-05-16T14:26:58.017Z,3.28
2023-05-16T14:29:25.714Z,2.85
2023-05-16T14:31:52.976Z,3.72
2023-05-16T14:34:19.856Z,2.88
2023-05-16T14:36:46.750Z,3.00
2023-05-16T14:39:14.155Z,2.80
2023-05-16T14:41:40.950Z,3.42
2023-05-16T14:44:07.684Z,3.03
2023-05-16T14:46:34.437Z,2.83
2023-05-16T14:49:01.244Z,2.58
2023-05-16T14:51:28.030Z,3.08
2023-05-16T14:53:54.793Z,2.80
2023-05-16T14:56:22.028Z,3.72
2023-05-16T14:58:48.737Z,2.53
2023-05-16T15:01:16.574Z,3.50
2023-05-16T15:03:54.583Z,2.67
2023-05-16T15:06:23.496Z,2.38
2023-05-16T15:08:50.801Z,2.42
2023-05-16T15:11:17.557Z,2.00
2023-05-16T15:13:44.337Z,2.45
2023-05-16T15:16:11.188Z,2.05
2023-05-16T15:18:38.155Z,1.95
2023-05-16T15:21:04.889Z,2.45
2023-05-16T15:23:31.737Z,2.40
2023-05-16T15:25:58.503Z,2.10
2023-05-16T15:28:25.333Z,1.88
2023-05-16T15:30:52.192Z,2.08
2023-05-16T15:33:19.064Z,2.03
2023-05-16T15:35:46.084Z,2.90
2023-05-16T15:38:13.083Z,1.90
2023-05-16T15:40:39.781Z,1.70
2023-05-16T15:43:06.553Z,2.20
2023-05-16T15:45:33.284Z,2.05
2023-05-16T15:48:00.199Z,1.40
2023-05-16T15:50:26.986Z,1.85
2023-05-16T15:52:53.674Z,1.48
2023-05-16T15:55:20.413Z,1.70
2023-05-16T15:57:47.133Z,2.40
2023-05-16T16:00:14.345Z,1.30
2023-05-16T16:02:42.903Z,1.50
2023-05-16T16:05:09.885Z,1.52
2023-05-16T16:07:36.633Z,1.52
2023-05-16T16:10:03.444Z,1.88
2023-05-16T16:12:32.213Z,1.23
2023-05-16T16:14:59.012Z,1.85
2023-05-16T16:17:25.900Z,1.90
2023-05-16T16:19:52.953Z,1.38
2023-05-16T16:22:22.254Z,1.60
2023-05-16T16:24:49.391Z,1.77
2023-05-16T16:27:16.678Z,1.70
2023-05-16T16:29:43.396Z,1.55
2023-05-16T16:32:10.157Z,2.13
2023-05-16T16:34:36.902Z,1.63
2023-05-16T16:37:04.129Z,1.33
2023-05-16T16:39:33.085Z,1.40
2023-05-16T16:42:00.162Z,1.77
2023-05-16T16:44:27.107Z,1.42
2023-05-16T16:46:54.969Z,1.67
2023-05-16T16:49:21.794Z,1.25
2023-05-16T16:51:49.985Z,1.10
2023-05-16T16:54:16.776Z,1.60
2023-05-16T16:56:43.734Z,1.77
2023-05-16T16:59:11.446Z,1.33
2023-05-16T17:01:38.256Z,1.58
2023-05-16T17:04:05.094Z,1.17
2023-05-16T17:06:31.812Z,1.85
2023-05-16T17:09:03.392Z,1.27
2023-05-16T17:11:30.873Z,1.15
2023-05-16T17:14:00.923Z,1.20
2023-05-16T17:16:29.119Z,1.38
2023-05-16T17:18:56.348Z,1.40
2023-05-16T17:21:23.126Z,1.25
2023-05-16T17:23:51.063Z,1.40
2023-05-16T17:26:17.899Z,1.75
2023-05-16T17:28:45.719Z,1.65
2023-05-16T17:31:12.682Z,1.35
2023-05-16T17:33:39.379Z,1.00
2023-05-16T17:36:07.392Z,1.20
2023-05-16T17:38:35.754Z,1.20
2023-05-16T17:41:02.617Z,1.08
2023-05-16T17:43:29.979Z,1.13
2023-05-16T17:45:56.956Z,1.10
2023-05-16T17:48:23.766Z,1.58
2023-05-16T17:50:50.597Z,1.42
2023-05-16T17:53:17.426Z,1.42
2023-05-16T17:55:44.150Z,1.10
2023-05-16T17:58:10.994Z,1.50
2023-05-16T18:00:38.398Z,1.75
2023-05-16T18:03:06.351Z,2.83
2023-05-16T18:05:33.270Z,1.20
2023-05-16T18:08:00.147Z,1.20
2023-05-16T18:10:33.815Z,2.10
2023-05-16T18:13:06.842Z,1.20
2023-05-16T18:15:35.449Z,0.98
2023-05-16T18:18:02.219Z,1.45
2023-05-16T18:20:29.104Z,1.15
2023-05-16T18:22:55.885Z,1.23
2023-05-16T18:25:22.647Z,1.23
2023-05-16T18:27:49.519Z,1.10
2023-05-16T18:30:16.496Z,1.48
2023-05-16T18:32:43.517Z,1.35
2023-05-16T18:35:10.494Z,0.73
2023-05-16T18:37:37.377Z,1.25
2023-05-16T18:40:04.863Z,0.90
2023-05-16T18:42:34.389Z,1.10
2023-05-16T18:45:01.177Z,1.00
2023-05-16T18:47:28.058Z,1.13
2023-05-16T18:49:55.066Z,1.40
2023-05-16T18:52:21.788Z,0.85
2023-05-16T18:54:48.594Z,0.90
2023-05-16T18:57:15.374Z,1.00
2023-05-16T18:59:43.300Z,1.23
2023-05-16T19:02:10.082Z,1.20
2023-05-16T19:04:36.975Z,1.00
2023-05-16T19:07:05.181Z,1.00
2023-05-16T19:09:32.721Z,1.10
2023-05-16T19:11:59.461Z,1.77
2023-05-16T19:14:27.920Z,1.00
2023-05-16T19:16:54.699Z,1.10
2023-05-16T19:19:21.764Z,1.20
2023-05-16T19:21:48.844Z,1.75
2023-05-16T19:24:23.303Z,1.13
2023-05-16T19:26:50.238Z,1.20
2023-05-16T19:29:16.923Z,1.30
2023-05-16T19:31:43.904Z,1.10
2023-05-16T19:34:10.698Z,1.17
2023-05-16T19:36:38.162Z,1.10
2023-05-16T19:39:05.604Z,1.25
2023-05-16T19:41:32.409Z,1.10
2023-05-16T19:43:59.233Z,1.33
2023-05-16T19:46:25.981Z,1.00
2023-05-16T19:48:52.797Z,1.10
2023-05-16T19:51:29.505Z,1.20
2023-05-16T19:54:04.403Z,1.13
2023-05-16T19:56:31.216Z,1.25
2023-05-16T19:58:57.999Z,2.13
2023-05-16T20:01:24.700Z,1.30
2023-05-16T20:03:51.668Z,1.38
2023-05-16T20:06:21.698Z,1.45
2023-05-16T20:08:48.580Z,1.63
2023-05-16T20:11:15.559Z,1.52
2023-05-16T20:13:42.375Z,1.50
2023-05-16T20:16:09.123Z,1.40
2023-05-16T20:18:36.371Z,1.25
2023-05-16T20:21:03.316Z,1.52
2023-05-16T20:23:30.133Z,1.52
2023-05-16T20:25:56.930Z,1.48
2023-05-16T20:28:23.742Z,1.50
2023-05-16T20:30:50.795Z,1.42
2023-05-16T20:33:20.133Z,1.27
2023-05-16T20:35:47.310Z,1.48
2023-05-16T20:38:14.123Z,1.52
2023-05-16T20:40:41.202Z,1.52
2023-05-16T20:43:08.039Z,1.17
2023-05-16T20:45:34.831Z,1.40
2023-05-16T20:48:01.611Z,1.63
2023-05-16T20:50:28.404Z,1.60
2023-05-16T20:52:55.249Z,1.92
2023-05-16T20:55:21.967Z,1.67
2023-05-16T20:57:48.841Z,1.70
2023-05-16T21:00:17.966Z,1.75
2023-05-16T21:02:44.805Z,1.83
2023-05-16T21:05:23.951Z,2.08
2023-05-16T21:07:52.182Z,1.90
2023-05-16T21:10:18.887Z,2.28
2023-05-16T21:12:45.763Z,2.20
2023-05-16T21:15:12.515Z,2.17
2023-05-16T21:17:40.973Z,2.03
2023-05-16T21:20:08.416Z,2.10
2023-05-16T21:22:35.566Z,2.72
2023-05-16T21:25:02.390Z,2.22
2023-05-16T21:27:29.212Z,2.25
2023-05-16T21:29:55.951Z,1.85
2023-05-16T21:32:22.837Z,2.00
2023-05-16T21:34:49.569Z,1.65
2023-05-16T21:37:16.921Z,1.70
2023-05-16T21:39:43.688Z,1.65
2023-05-16T21:42:10.574Z,2.60
2023-05-16T21:44:37.349Z,1.45
2023-05-16T21:47:04.427Z,1.95
2023-05-16T21:49:31.589Z,1.88
2023-05-16T21:51:58.599Z,2.10
2023-05-16T21:54:25.634Z,2.72
2023-05-16T21:56:52.374Z,1.70
2023-05-16T21:59:19.075Z,1.90
2023-05-16T22:01:48.065Z,1.58
2023-05-16T22:04:15.081Z,2.08
2023-05-16T22:06:41.913Z,2.30
2023-05-16T22:09:09.145Z,2.15
2023-05-16T22:11:36.091Z,1.45
2023-05-16T22:14:02.941Z,1.80
2023-05-16T22:16:29.703Z,2.03
2023-05-16T22:18:56.665Z,1.63
2023-05-16T22:21:23.501Z,1.52
2023-05-16T22:23:50.417Z,2.20
2023-05-16T22:26:17.167Z,1.88
2023-05-16T22:28:44.043Z,1.88
2023-05-16T22:31:10.808Z,2.00
2023-05-16T22:33:37.793Z,1.80
2023-05-16T22:36:04.985Z,1.77
2023-05-16T22:38:31.924Z,1.70
2023-05-16T22:40:58.765Z,2.28
2023-05-16T22:43:25.532Z,2.15
2023-05-16T22:45:52.374Z,1.85
2023-05-16T22:48:19.236Z,1.77
2023-05-16T22:50:46.093Z,1.70
2023-05-16T22:53:13.029Z,1.42
2023-05-16T22:55:39.848Z,1.52
2023-05-16T22:58:07.022Z,1.20
2023-05-16T23:00:33.889Z,1.50
2023-05-16T23:03:00.811Z,1.77
2023-05-16T23:05:28.070Z,2.05
2023-05-16T23:07:55.134Z,1.50
2023-05-16T23:10:21.882Z,1.65
2023-05-16T23:12:48.622Z,1.33
2023-05-16T23:15:15.573Z,1.60
2023-05-16T23:17:42.381Z,1.30
2023-05-16T23:20:09.300Z,1.30
2023-05-16T23:22:36.141Z,1.60
2023-05-16T23:25:03.099Z,1.27
2023-05-16T23:27:29.916Z,1.50
2023-05-16T23:29:56.795Z,1.75
2023-05-16T23:32:23.632Z,1.48
2023-05-16T23:34:50.658Z,1.80
2023-05-16T23:37:17.506Z,1.40
2023-05-16T23:39:44.382Z,1.60
2023-05-16T23:42:11.150Z,1.40
2023-05-16T23:44:39.608Z,1.50
2023-05-16T23:47:06.580Z,1.50
2023-05-16T23:49:33.299Z,1.70
2023-05-16T23:52:00.266Z,1.25
2023-05-16T23:54:27.198Z,1.50
2023-05-16T23:56:53.988Z,1.27
2023-05-16T23:59:20.905Z,1.52
